Time,TemperatureF,DewpointF,PressureIn,WindDirection,WindDirectionDegrees,WindSpeedMPH,WindSpeedGustMPH,Humidity,HourlyPrecipIn,Conditions,Clouds,dailyrainin,SoftwareType,DateUTC
2013-08-29 00:00:00,62.6,62.6,29.86,SW,228,1.0,1.0,100,0.00,,,0.00,Wunderground v.1.12,2013-08-29 07:00:00,
2013-08-29 00:10:00,62.4,62.4,29.86,WNW,288,1.0,1.0,100,0.00,,,0.00,Wunderground v.1.12,2013-08-29 07:10:00,
2013-08-29 00:20:00,62.4,62.4,29.86,WNW,290,0.0,0.0,100,0.00,,,0.00,Wunderground v.1.12,2013-08-29 07:20:00,
2013-08-29 00:30:00,62.4,62.4,29.86,WNW,282,0.0,0.0,100,0.00,,,0.00,Wunderground v.1.12,2013-08-29 07:30:00,
2013-08-29 00:40:00,62.4,62.4,29.86,West,277,0.0,0.0,100,0.00,,,0.00,Wunderground v.1.12,2013-08-29 07:40:00,
2013-08-29 00:50:00,62.3,62.3,29.87,WNW,292,1.0,1.0,100,0.00,,,0.00,Wunderground v.1.12,2013-08-29 07:50:00,
2013-08-29 01:00:00,62.0,62.0,29.87,WNW,290,1.0,1.0,100,0.00,,,0.00,Wunderground v.1.12,2013-08-29 08:00:00,
2013-08-29 01:10:00,62.0,62.0,29.87,SSW,210,1.0,2.0,100,0.00,,,0.00,Wunderground v.1.12,2013-08-29 08:10:00,
2013-08-29 01:20:00,61.8,61.8,29.87,SW,223,1.0,1.0,100,0.00,,,0.00,Wunderground v.1.12,2013-08-29 08:20:00,
2013-08-29 01:30:00,61.6,61.6,29.87,SSW,205,1.0,1.0,100,0.00,,,0.00,Wunderground v.1.12,2013-08-29 08:30:00,
2013-08-29 01:40:00,61.8,61.8,29.87,SSW,209,0.0,0.0,100,0.00,,,0.00,Wunderground v.1.12,2013-08-29 08:40:00,
2013-08-29 01:50:00,61.8,61.8,29.87,SSW,209,0.0,0.0,100,0.00,,,0.00,Wunderground v.1.12,2013-08-29 08:50:00,
2013-08-29 02:00:00,61.6,61.6,29.87,SSW,209,0.0,0.0,100,0.00,,,0.00,Wunderground v.1.12,2013-08-29 09:00:00,
2013-08-29 02:10:00,61.6,61.6,29.87,SW,220,0.0,3.0,100,0.00,,,0.00,Wunderground v.1.12,2013-08-29 09:10:00,
2013-08-29 02:20:00,61.6,61.6,29.87,SW,223,0.0,0.0,100,0.00,,,0.00,Wunderground v.1.12,2013-08-29 09:20:00,
2013-08-29 02:30:00,61.6,61.6,29.87,SW,222,0.0,0.0,100,0.00,,,0.00,Wunderground v.1.12,2013-08-29 09:30:00,
2013-08-29 02:40:00,61.6,61.6,29.87,SSW,211,0.0,3.0,100,0.00,,,0.00,Wunderground v.1.12,2013-08-29 09:40:00,
2013-08-29 02:50:00,61.6,61.6,29.88,SSW,207,0.0,0.0,100,0.00,,,0.00,Wunderground v.1.12,2013-08-29 09:50:00,
2013-08-29 03:00:00,61.5,61.5,29.88,SSW,207,0.0,0.0,100,0.00,,,0.00,Wunderground v.1.12,2013-08-29 10:00:00,
2013-08-29 03:10:00,61.5,61.5,29.87,SSW,207,0.0,0.0,100,0.00,,,0.00,Wunderground v.1.12,2013-08-29 10:10:00,
2013-08-29 03:20:00,61.3,61.3,29.88,SSW,207,0.0,0.0,100,0.00,,,0.00,Wunderground v.1.12,2013-08-29 10:20:00,
2013-08-29 03:30:00,61.5,61.5,29.88,SSW,207,0.0,0.0,100,0.00,,,0.00,Wunderground v.1.12,2013-08-29 10:30:00,
2013-08-29 03:40:00,61.5,61.5,29.88,SSW,207,0.0,0.0,100,0.00,,,0.00,Wunderground v.1.12,2013-08-29 10:40:00,
2013-08-29 03:50:00,61.5,61.5,29.88,SSW,206,0.0,0.0,100,0.00,,,0.00,Wunderground v.1.12,2013-08-29 10:50:00,
2013-08-29 04:00:00,61.5,61.5,29.88,SSW,207,0.0,0.0,100,0.00,,,0.00,Wunderground v.1.12,2013-08-29 11:00:00,
2013-08-29 04:10:00,61.6,61.6,29.88,SSW,207,0.0,0.0,100,0.00,,,0.00,Wunderground v.1.12,2013-08-29 11:10:00,
2013-08-29 04:20:00,61.6,61.6,29.88,SSW,207,0.0,0.0,100,0.00,,,0.00,Wunderground v.1.12,2013-08-29 11:20:00,
2013-08-29 04:30:00,61.8,61.8,29.88,SSW,207,0.0,0.0,100,0.00,,,0.00,Wunderground v.1.12,2013-08-29 11:30:00,
2013-08-29 04:40:00,61.8,61.8,29.88,SSW,206,0.0,0.0,100,0.00,,,0.00,Wunderground v.1.12,2013-08-29 11:40:00,
2013-08-29 04:50:00,61.8,61.8,29.88,SSW,207,0.0,0.0,100,0.00,,,0.00,Wunderground v.1.12,2013-08-29 11:50:00,
2013-08-29 05:00:00,61.8,61.8,29.88,SSW,207,0.0,0.0,100,0.00,,,0.00,Wunderground v.1.12,2013-08-29 12:00:00,
2013-08-29 05:10:00,62.0,62.0,29.88,SSW,207,0.0,0.0,100,0.00,,,0.00,Wunderground v.1.12,2013-08-29 12:10:00,
2013-08-29 05:20:00,61.8,61.8,29.88,SSW,207,0.0,0.0,100,0.00,,,0.00,Wunderground v.1.12,2013-08-29 12:20:00,
2013-08-29 05:30:00,62.0,62.0,29.88,SSW,207,0.0,0.0,100,0.00,,,0.00,Wunderground v.1.12,2013-08-29 12:30:00,
2013-08-29 05:40:00,62.0,62.0,29.88,SSW,207,0.0,0.0,100,0.00,,,0.00,Wunderground v.1.12,2013-08-29 12:40:00,
2013-08-29 05:50:00,62.0,62.0,29.88,SSW,207,0.0,0.0,100,0.00,,,0.00,Wunderground v.1.12,2013-08-29 12:50:00,
2013-08-29 06:00:00,61.8,61.8,29.88,SSW,207,0.0,0.0,100,0.00,,,0.00,Wunderground v.1.12,2013-08-29 13:00:00,
2013-08-29 06:10:00,61.8,61.8,29.89,SSW,207,0.0,0.0,100,0.00,,,0.00,Wunderground v.1.12,2013-08-29 13:10:00,
2013-08-29 06:20:00,61.8,61.8,29.89,SSW,207,0.0,0.0,100,0.00,,,0.00,Wunderground v.1.12,2013-08-29 13:20:00,
2013-08-29 06:30:00,61.8,61.8,29.89,SSW,207,0.0,0.0,100,0.00,,,0.00,Wunderground v.1.12,2013-08-29 13:30:00,
2013-08-29 06:40:00,61.8,61.8,29.90,SSW,206,0.0,0.0,100,0.00,,,0.00,Wunderground v.1.12,2013-08-29 13:40:00,
2013-08-29 06:50:00,61.8,61.8,29.90,SSW,207,0.0,0.0,100,0.00,,,0.00,Wunderground v.1.12,2013-08-29 13:50:00,
2013-08-29 07:00:00,61.8,61.8,29.90,SSW,206,0.0,0.0,100,0.00,,,0.00,Wunderground v.1.12,2013-08-29 14:00:00,
2013-08-29 07:10:00,61.8,61.8,29.90,SSW,206,0.0,0.0,100,0.00,,,0.00,Wunderground v.1.12,2013-08-29 14:10:00,
2013-08-29 07:20:00,61.8,61.8,29.91,SSW,207,0.0,0.0,100,0.00,,,0.00,Wunderground v.1.12,2013-08-29 14:20:00,
2013-08-29 07:30:00,62.0,62.0,29.91,SSW,206,0.0,0.0,100,0.00,,,0.00,Wunderground v.1.12,2013-08-29 14:30:00,
2013-08-29 07:40:00,62.0,62.0,29.91,SSW,207,0.0,0.0,100,0.00,,,0.00,Wunderground v.1.12,2013-08-29 14:40:00,
2013-08-29 07:50:00,62.3,62.3,29.92,SSW,207,0.0,0.0,100,0.00,,,0.00,Wunderground v.1.12,2013-08-29 14:50:00,
2013-08-29 08:00:00,62.6,62.6,29.92,SSW,206,0.0,0.0,100,0.00,,,0.00,Wunderground v.1.12,2013-08-29 15:00:00,
2013-08-29 08:10:00,62.7,62.7,29.93,SSW,207,0.0,2.0,100,0.00,,,0.00,Wunderground v.1.12,2013-08-29 15:10:00,
2013-08-29 08:20:00,62.9,62.9,29.93,SSW,206,0.0,0.0,100,0.00,,,0.00,Wunderground v.1.12,2013-08-29 15:20:00,
2013-08-29 08:30:00,62.9,62.9,29.93,SSW,206,0.0,0.0,100,0.00,,,0.00,Wunderground v.1.12,2013-08-29 15:30:00,
2013-08-29 08:40:00,63.2,63.2,29.94,SSW,206,0.0,0.0,100,0.00,,,0.00,Wunderground v.1.12,2013-08-29 15:40:00,
2013-08-29 08:50:00,63.5,63.5,29.94,SSW,206,0.0,0.0,100,0.00,,,0.00,Wunderground v.1.12,2013-08-29 15:50:00,
2013-08-29 09:00:00,64.2,64.2,29.94,SSW,213,0.0,0.0,100,0.00,,,0.00,Wunderground v.1.12,2013-08-29 16:00:00,
2013-08-29 09:10:00,64.7,64.7,29.94,West,277,0.0,0.0,100,0.00,,,0.00,Wunderground v.1.12,2013-08-29 16:10:00,
2013-08-29 09:20:00,64.8,64.8,29.94,West,279,0.0,0.0,100,0.00,,,0.00,Wunderground v.1.12,2013-08-29 16:20:00,
2013-08-29 09:30:00,64.8,64.8,29.94,West,279,0.0,0.0,100,0.00,,,0.00,Wunderground v.1.12,2013-08-29 16:30:00,
2013-08-29 09:40:00,65.5,65.5,29.95,WNW,286,0.0,0.0,100,0.00,,,0.00,Wunderground v.1.12,2013-08-29 16:40:00,
2013-08-29 09:50:00,66.0,66.0,29.95,WNW,291,1.0,5.0,100,0.00,,,0.00,Wunderground v.1.12,2013-08-29 16:50:00,
2013-08-29 10:00:00,66.3,66.3,29.95,WNW,288,1.0,3.0,100,0.00,,,0.00,Wunderground v.1.12,2013-08-29 17:00:00,
2013-08-29 10:10:00,66.9,66.9,29.95,WNW,288,2.0,2.0,100,0.00,,,0.00,Wunderground v.1.12,2013-08-29 17:10:00,
2013-08-29 10:20:00,67.6,67.6,29.95,West,279,3.0,5.0,100,0.00,,,0.00,Wunderground v.1.12,2013-08-29 17:20:00,
2013-08-29 10:30:00,68.3,68.3,29.95,WNW,286,3.0,6.0,100,0.00,,,0.00,Wunderground v.1.12,2013-08-29 17:30:00,
2013-08-29 10:40:00,69.1,69.1,29.95,SW,217,3.0,3.0,100,0.00,,,0.00,Wunderground v.1.12,2013-08-29 17:40:00,
2013-08-29 10:50:00,69.4,69.4,29.95,West,280,3.0,7.0,100,0.00,,,0.00,Wunderground v.1.12,2013-08-29 17:50:00,
2013-08-29 11:00:00,69.4,69.4,29.95,West,279,4.0,4.0,100,0.00,,,0.00,Wunderground v.1.12,2013-08-29 18:00:00,
2013-08-29 11:10:00,70.3,70.3,29.96,NNW,327,2.0,2.0,100,0.00,,,0.00,Wunderground v.1.12,2013-08-29 18:10:00,
2013-08-29 11:20:00,70.8,70.8,29.96,WNW,296,3.0,3.0,100,0.00,,,0.00,Wunderground v.1.12,2013-08-29 18:20:00,
2013-08-29 11:30:00,71.1,71.1,29.96,WNW,296,4.0,4.0,100,0.00,,,0.00,Wunderground v.1.12,2013-08-29 18:30:00,
2013-08-29 11:40:00,70.6,70.6,29.96,WNW,298,4.0,4.0,100,0.00,,,0.00,Wunderground v.1.12,2013-08-29 18:40:00,
2013-08-29 11:50:00,71.8,71.8,29.96,WSW,242,3.0,3.0,100,0.00,,,0.00,Wunderground v.1.12,2013-08-29 18:50:00,
2013-08-29 12:00:00,72.3,72.3,29.96,NW,306,3.0,5.0,100,0.00,,,0.00,Wunderground v.1.12,2013-08-29 19:00:00,
2013-08-29 12:10:00,72.1,72.1,29.96,West,264,4.0,7.0,100,0.00,,,0.00,Wunderground v.1.12,2013-08-29 19:10:00,
2013-08-29 12:20:00,73.0,73.0,29.96,WNW,282,2.0,9.0,100,0.00,,,0.00,Wunderground v.1.12,2013-08-29 19:20:00,
2013-08-29 12:30:00,73.0,73.0,29.96,WNW,284,4.0,8.0,100,0.00,,,0.00,Wunderground v.1.12,2013-08-29 19:30:00,
2013-08-29 12:40:00,73.5,73.5,29.96,WNW,283,5.0,5.0,100,0.00,,,0.00,Wunderground v.1.12,2013-08-29 19:40:00,
2013-08-29 12:50:00,73.7,73.7,29.95,West,271,5.0,7.0,100,0.00,,,0.00,Wunderground v.1.12,2013-08-29 19:50:00,
2013-08-29 13:00:00,73.7,73.7,29.95,WNW,297,5.0,8.0,100,0.00,,,0.00,Wunderground v.1.12,2013-08-29 20:00:00,
2013-08-29 13:10:00,74.2,74.2,29.95,WNW,292,4.0,4.0,100,0.00,,,0.00,Wunderground v.1.12,2013-08-29 20:10:00,
2013-08-29 13:20:00,74.7,74.7,29.95,NNW,348,4.0,4.0,100,0.00,,,0.00,Wunderground v.1.12,2013-08-29 20:20:00,
2013-08-29 13:30:00,75.4,75.4,29.95,WNW,296,4.0,4.0,100,0.00,,,0.00,Wunderground v.1.12,2013-08-29 20:30:00,
2013-08-29 13:40:00,76.8,76.8,29.95,WSW,248,3.0,4.0,100,0.00,,,0.00,Wunderground v.1.12,2013-08-29 20:40:00,
2013-08-29 13:50:00,77.9,77.9,29.94,SSW,196,2.0,7.0,100,0.00,,,0.00,Wunderground v.1.12,2013-08-29 20:50:00,
2013-08-29 14:00:00,77.9,77.9,29.94,NW,304,2.0,9.0,100,0.00,,,0.00,Wunderground v.1.12,2013-08-29 21:00:00,
2013-08-29 14:10:00,78.3,78.3,29.94,WNW,286,3.0,3.0,100,0.00,,,0.00,Wunderground v.1.12,2013-08-29 21:10:00,
2013-08-29 14:20:00,78.6,78.6,29.94,WNW,287,3.0,3.0,100,0.00,,,0.00,Wunderground v.1.12,2013-08-29 21:20:00,
2013-08-29 14:30:00,79.0,79.0,29.94,WNW,302,3.0,6.0,100,0.00,,,0.00,Wunderground v.1.12,2013-08-29 21:30:00,
2013-08-29 14:40:00,78.3,78.3,29.94,NW,309,4.0,4.0,100,0.00,,,0.00,Wunderground v.1.12,2013-08-29 21:40:00,
2013-08-29 14:50:00,78.3,78.3,29.94,West,279,4.0,4.0,100,0.00,,,0.00,Wunderground v.1.12,2013-08-29 21:50:00,
2013-08-29 15:00:00,77.9,77.9,29.94,West,277,6.0,8.0,100,0.00,,,0.00,Wunderground v.1.12,2013-08-29 22:00:00,
2013-08-29 15:10:00,77.9,77.9,29.94,WNW,292,6.0,6.0,100,0.00,,,0.00,Wunderground v.1.12,2013-08-29 22:10:00,
2013-08-29 15:20:00,77.7,77.7,29.93,NW,306,5.0,11.0,100,0.00,,,0.00,Wunderground v.1.12,2013-08-29 22:20:00,
2013-08-29 15:30:00,76.8,76.8,29.93,West,277,5.0,5.0,100,0.00,,,0.00,Wunderground v.1.12,2013-08-29 22:30:00,
2013-08-29 15:40:00,76.7,76.7,29.93,NW,312,6.0,6.0,100,0.00,,,0.00,Wunderground v.1.12,2013-08-29 22:40:00,
2013-08-29 15:50:00,76.1,76.1,29.93,WNW,298,6.0,9.0,100,0.00,,,0.00,Wunderground v.1.12,2013-08-29 22:50:00,
2013-08-29 16:00:00,75.3,75.3,29.93,WNW,298,6.0,7.0,100,0.00,,,0.00,Wunderground v.1.12,2013-08-29 23:00:00,
2013-08-29 16:10:00,74.4,74.4,29.93,West,281,6.0,8.0,100,0.00,,,0.00,Wunderground v.1.12,2013-08-29 23:10:00,
2013-08-29 16:20:00,74.4,74.4,29.93,WNW,285,5.0,5.0,100,0.00,,,0.00,Wunderground v.1.12,2013-08-29 23:20:00,
2013-08-29 16:30:00,74.7,74.7,29.93,WNW,284,3.0,7.0,100,0.00,,,0.00,Wunderground v.1.12,2013-08-29 23:30:00,
2013-08-29 16:40:00,73.3,73.3,29.93,WNW,295,7.0,7.0,100,0.00,,,0.00,Wunderground v.1.12,2013-08-29 23:40:00,
2013-08-29 16:50:00,73.2,73.2,29.93,West,280,6.0,8.0,100,0.00,,,0.00,Wunderground v.1.12,2013-08-29 23:50:00,
2013-08-29 17:00:00,72.7,72.7,29.93,WNW,296,6.0,6.0,100,0.00,,,0.00,Wunderground v.1.12,2013-08-30 00:00:00,
2013-08-29 17:10:00,72.5,72.5,29.93,WNW,302,6.0,6.0,100,0.00,,,0.00,Wunderground v.1.12,2013-08-30 00:10:00,
2013-08-29 17:20:00,71.6,71.6,29.93,West,275,7.0,7.0,100,0.00,,,0.00,Wunderground v.1.12,2013-08-30 00:20:00,
2013-08-29 17:30:00,70.9,70.9,29.93,WNW,283,7.0,8.0,100,0.00,,,0.00,Wunderground v.1.12,2013-08-30 00:30:00,
2013-08-29 17:40:00,69.9,69.9,29.93,West,281,7.0,7.0,100,0.00,,,0.00,Wunderground v.1.12,2013-08-30 00:40:00,
2013-08-29 17:50:00,69.6,69.6,29.93,WNW,288,4.0,4.0,100,0.00,,,0.00,Wunderground v.1.12,2013-08-30 00:50:00,
2013-08-29 18:00:00,70.1,70.1,29.93,WNW,303,2.0,5.0,100,0.00,,,0.00,Wunderground v.1.12,2013-08-30 01:00:00,
2013-08-29 18:10:00,68.8,68.8,29.93,WSW,238,5.0,8.0,100,0.00,,,0.00,Wunderground v.1.12,2013-08-30 01:10:00,
2013-08-29 18:20:00,66.8,66.8,29.93,WNW,284,5.0,5.0,100,0.00,,,0.00,Wunderground v.1.12,2013-08-30 01:20:00,
2013-08-29 18:30:00,65.8,65.8,29.93,West,276,4.0,4.0,100,0.00,,,0.00,Wunderground v.1.12,2013-08-30 01:30:00,
2013-08-29 18:40:00,65.2,65.2,29.93,West,281,3.0,4.0,100,0.00,,,0.00,Wunderground v.1.12,2013-08-30 01:40:00,
2013-08-29 18:50:00,64.8,64.8,29.93,SSW,207,3.0,4.0,100,0.00,,,0.00,Wunderground v.1.12,2013-08-30 01:50:00,
2013-08-29 19:00:00,64.7,64.7,29.93,SW,216,3.0,4.0,100,0.00,,,0.00,Wunderground v.1.12,2013-08-30 02:00:00,
2013-08-29 19:10:00,64.5,64.5,29.93,SSW,211,1.0,1.0,100,0.00,,,0.00,Wunderground v.1.12,2013-08-30 02:10:00,
2013-08-29 19:20:00,64.5,64.5,29.93,SW,227,2.0,2.0,100,0.00,,,0.00,Wunderground v.1.12,2013-08-30 02:20:00,
2013-08-29 19:30:00,64.3,64.3,29.93,West,259,4.0,4.0,100,0.00,,,0.00,Wunderground v.1.12,2013-08-30 02:30:00,
2013-08-29 19:40:00,64.3,64.3,29.93,SW,221,1.0,1.0,100,0.00,,,0.00,Wunderground v.1.12,2013-08-30 02:40:00,
2013-08-29 19:50:00,64.2,64.2,29.93,SSW,199,4.0,4.0,100,0.00,,,0.00,Wunderground v.1.12,2013-08-30 02:50:00,
2013-08-29 20:00:00,64.0,64.0,29.93,SW,222,2.0,2.0,100,0.00,,,0.00,Wunderground v.1.12,2013-08-30 03:00:00,
2013-08-29 20:10:00,64.0,64.0,29.93,SW,229,2.0,2.0,100,0.00,,,0.00,Wunderground v.1.12,2013-08-30 03:10:00,
2013-08-29 20:20:00,64.2,64.2,29.94,SW,225,1.0,7.0,100,0.00,,,-99.99,WeatherLink 5.8.2,2013-08-30 03:20:00,
2013-08-29 20:30:00,64.2,64.2,29.94,WSW,254,1.0,1.0,100,0.00,,,0.00,Wunderground v.1.12,2013-08-30 03:30:00,
2013-08-29 20:40:00,64.2,64.2,29.94,SW,231,2.0,6.0,100,0.00,,,0.00,Wunderground v.1.12,2013-08-30 03:40:00,
2013-08-29 20:50:00,64.3,64.3,29.94,SSW,204,2.0,2.0,100,0.00,,,0.00,Wunderground v.1.12,2013-08-30 03:50:00,
2013-08-29 21:00:00,64.3,64.3,29.94,SW,224,2.0,9.0,100,0.00,,,0.00,Wunderground v.1.12,2013-08-30 04:00:00,
2013-08-29 21:03:00,64.3,64.3,29.94,SSW,202,3.0,9.0,100,0.00,,,-99.99,WeatherLink 5.8.2,2013-08-30 04:03:00,
2013-08-29 21:10:00,64.3,64.3,29.95,South,185,2.0,3.0,100,0.00,,,0.00,Wunderground v.1.12,2013-08-30 04:10:00,
2013-08-29 21:20:00,64.3,64.3,29.95,SW,225,1.0,1.0,100,0.00,,,0.00,Wunderground v.1.12,2013-08-30 04:20:00,
2013-08-29 21:23:00,64.3,64.3,29.95,SW,225,1.0,7.0,100,0.00,,,-99.99,WeatherLink 5.8.2,2013-08-30 04:23:00,
2013-08-29 21:30:00,64.3,64.3,29.95,WNW,290,0.0,1.0,100,0.00,,,0.00,Wunderground v.1.12,2013-08-30 04:30:00,
2013-08-29 21:40:00,64.3,64.3,29.95,SSW,202,1.0,5.0,100,0.00,,,0.00,Wunderground v.1.12,2013-08-30 04:40:00,
2013-08-29 21:50:00,64.0,64.0,29.95,SW,228,2.0,10.0,100,0.00,,,0.00,Wunderground v.1.12,2013-08-30 04:50:00,
2013-08-29 22:00:00,63.7,63.7,29.95,SW,215,2.0,4.0,100,0.00,,,0.00,Wunderground v.1.12,2013-08-30 05:00:00,
2013-08-29 22:10:00,63.4,63.4,29.95,SW,220,2.0,6.0,100,0.00,,,0.00,Wunderground v.1.12,2013-08-30 05:10:00,
2013-08-29 22:20:00,63.2,63.2,29.95,South,190,2.0,2.0,100,0.00,,,0.00,Wunderground v.1.12,2013-08-30 05:20:00,
2013-08-29 22:30:00,63.2,63.2,29.95,West,259,0.0,0.0,100,0.00,,,0.00,Wunderground v.1.12,2013-08-30 05:30:00,
2013-08-29 22:40:00,63.4,63.4,29.95,WNW,286,0.0,3.0,100,0.00,,,0.00,Wunderground v.1.12,2013-08-30 05:40:00,
2013-08-29 22:50:00,63.4,63.4,29.95,WNW,284,0.0,0.0,100,0.00,,,0.00,Wunderground v.1.12,2013-08-30 05:50:00,
2013-08-29 23:00:00,63.2,63.2,29.95,WNW,283,0.0,0.0,100,0.00,,,0.00,Wunderground v.1.12,2013-08-30 06:00:00,
2013-08-29 23:10:00,63.1,63.1,29.94,WNW,293,2.0,2.0,100,0.00,,,0.00,Wunderground v.1.12,2013-08-30 06:10:00,
2013-08-29 23:20:00,62.9,62.9,29.95,WNW,288,0.0,0.0,100,0.00,,,0.00,Wunderground v.1.12,2013-08-30 06:20:00,
2013-08-29 23:30:00,62.7,62.7,29.95,West,281,0.0,0.0,100,0.00,,,0.00,Wunderground v.1.12,2013-08-30 06:30:00,
2013-08-29 23:40:00,62.3,62.3,29.95,WNW,286,0.0,0.0,100,0.00,,,0.00,Wunderground v.1.12,2013-08-30 06:40:00,
2013-08-29 23:50:00,62.0,62.0,29.95,NW,325,0.0,0.0,100,0.00,,,0.00,Wunderground v.1.12,2013-08-30 06:50:00,